Latest Weather Observations for Groote Eylandt Airport

IDD60801

Issued at 4:05 pm CST Tuesday 2 September 2014 (issued every 30 minutes, with the page automatically refreshed every 10 minutes)

About weather observations | Map of weather stations | Latest weather observations for NT | Other Formats
Station Details ID: 014518 Name: GROOTE EYLANDT AIRPORT Lat: -13.97 Lon: 136.46 Height: 13.7 m
Data from the previous 72 hours. | See also: Recent months at Groote Eylandt Airport
Date/Time
CST
Temp
°C
App
Temp
°C
Dew
Point
Rel
Hum
%
Delta-T
°C
Wind Press
QNH
hPa
Press
MSL
hPa
Rain
since 9 am
mm
Dir
 
Spd
km/h
Gust
km/h
Spd
kts
Gust
kts
02/04:00pm 31.6 29.5 12.4 31 11.4 ESE 15 24 8 13 1012.8 - 0.0
02/03:30pm 32.5 30.2 11.6 28 12.3 ESE 15 20 8 11 1012.9 - 0.0
02/03:00pm 32.1 29.3 11.3 28 12.1 E 17 24 9 13 1013.0 1012.9 0.0
02/02:30pm 31.7 30.5 13.9 34 10.8 ESE 13 22 7 12 1013.5 - 0.0
02/02:00pm 30.4 31.9 18.8 50 7.5 N 9 17 5 9 1013.8 - 0.0
02/01:30pm 29.6 29.2 18.1 50 7.4 N 17 26 9 14 1014.0 - 0.0
02/01:00pm 33.3 28.7 12.3 28 12.5 ENE 28 37 15 20 1013.9 - 0.0
02/12:30pm 33.0 28.7 7.1 20 14.2 SE 19 41 10 22 1014.0 - 0.0
02/12:00pm 33.5 29.5 8.9 22 13.9 E 20 30 11 16 1014.4 1014.3 0.0
02/11:30am 31.3 30.6 15.3 38 9.9 ESE 13 17 7 9 1014.7 - 0.0
02/11:00am 30.2 30.9 16.2 42 8.7 S 7 15 4 8 1015.2 - 0.0
02/10:30am 29.1 30.5 17.9 50 7.1 SE 7 11 4 6 1015.7 - 0.0
02/10:00am 27.5 29.0 18.8 59 5.6 SSE 9 15 5 8 1015.9 - 0.0
02/09:30am 25.1 26.3 19.0 69 3.9 S 11 17 6 9 1016.0 - 0.0
02/09:00am 24.1 25.9 20.4 80 2.4 S 11 17 6 9 1016.0 1015.9 0.0
02/08:30am 22.8 25.2 20.9 89 1.2 S 9 19 5 10 1016.0 - 0.0
02/08:18am 22.0 24.9 21.7 98 0.2 S 9 13 5 7 1015.9 - 0.0
02/08:01am 21.0 23.9 21.0 100 0.0 S 7 11 4 6 1015.9 - 0.0
02/08:00am 21.0 23.9 21.0 100 0.0 S 7 11 4 6 1015.9 - 0.0
02/07:33am 19.6 22.0 19.6 100 0.0 ESE 6 9 3 5 1015.8 - 0.0
02/07:30am 19.5 21.7 19.5 100 0.0 SE 7 9 4 5 1015.8 - 0.0
02/07:24am 19.2 21.4 19.2 100 0.0 S 6 9 3 5 1015.7 - 0.0
02/07:15am 19.1 21.1 19.1 100 0.0 S 7 11 4 6 1015.7 - 0.0
02/07:00am 18.9 21.0 18.9 100 0.0 S 6 9 3 5 1015.4 - 0.0
02/06:30am 19.0 21.1 19.0 100 0.0 SE 6 7 3 4 1015.2 - 0.0
02/06:00am 18.8 20.7 18.6 99 0.1 S 6 9 3 5 1014.9 1014.8 0.0
02/05:30am 19.2 21.7 19.0 99 0.1 S 4 9 2 5 1014.8 - 0.0
02/05:05am 19.7 22.0 19.5 99 0.1 S 6 9 3 5 1014.4 - 0.0
02/05:00am 19.9 22.3 19.7 99 0.1 S 6 9 3 5 1014.4 - 0.0
02/04:30am 19.9 22.7 19.7 99 0.1 SSW 4 7 2 4 1014.4 - 0.0
02/04:00am 20.4 23.5 20.2 99 0.1 SSW 4 7 2 4 1014.4 - 0.0
02/03:30am 20.5 23.9 20.2 98 0.2 ENE 2 6 1 3 1014.5 - 0.0
02/03:00am 20.8 23.5 20.3 97 0.3 ENE 6 7 3 4 1014.6 1014.5 0.0
02/02:30am 21.2 24.1 20.7 97 0.3 ESE 6 7 3 4 1014.6 - 0.0
02/02:00am 21.3 24.4 21.0 98 0.2 ESE 6 7 3 4 1014.7 - 0.0
02/01:31am 20.9 24.9 20.6 98 0.2 CALM 0 7 0 4 1014.8 - 0.0
02/01:30am 20.8 24.8 20.5 98 0.2 CALM 0 7 0 4 1014.8 - 0.0
02/01:16am 20.4 23.7 19.9 97 0.3 NE 2 9 1 5 1015.0 - 0.0
02/01:09am 20.3 23.4 19.6 96 0.4 E 2 9 1 5 1015.1 - 0.0
02/01:00am 19.9 23.1 18.9 94 0.6 CALM 0 0 0 0 1015.2 - 0.0
02/12:54am 19.6 22.6 18.4 93 0.7 CALM 0 0 0 0 1015.2 - 0.0
02/12:30am 19.4 21.7 17.7 90 1.0 E 2 6 1 3 1015.3 - 0.0
02/12:00am 20.2 22.1 19.0 93 0.8 E 7 7 4 4 1015.0 1014.9 0.0
 
Date/Time
CST
Temp
°C
App
Temp
°C
Dew
Point
Rel
Hum
%
Delta-T
°C
Wind Press
QNH
hPa
Press
MSL
hPa
Rain
since 9 am
mm
Dir
 
Spd
km/h
Gust
km/h
Spd
kts
Gust
kts
01/11:30pm 20.4 22.6 19.1 92 0.8 E 6 7 3 4 1014.9 - 0.0
01/11:00pm 20.4 22.3 18.5 89 1.2 E 6 7 3 4 1014.9 - 0.0
01/10:30pm 20.7 22.6 18.5 87 1.4 ENE 6 7 3 4 1015.1 - 0.0
01/10:00pm 20.9 22.8 18.5 86 1.5 ENE 6 7 3 4 1015.0 - 0.0
01/09:30pm 21.4 23.5 18.2 82 2.0 ENE 4 7 2 4 1014.8 - 0.0
01/09:00pm 22.1 23.6 18.9 82 2.0 ENE 9 11 5 6 1014.7 1014.6 0.0
01/08:30pm 22.6 24.0 18.6 78 2.5 NE 9 11 5 6 1014.6 - 0.0
01/08:00pm 23.3 25.0 18.0 72 3.3 E 6 7 3 4 1014.3 - 0.0
01/07:30pm 24.0 25.4 17.7 68 3.9 E 7 9 4 5 1014.0 - 0.0
01/07:00pm 24.9 26.0 17.1 62 4.8 ESE 7 9 4 5 1013.5 - 0.0
01/06:30pm 26.1 26.2 16.4 55 6.0 ESE 11 20 6 11 1013.3 - 0.0
01/06:00pm 27.5 27.3 15.8 48 7.2 ESE 11 17 6 9 1012.9 1012.8 0.0
01/05:30pm 28.9 28.5 15.1 43 8.4 ESE 11 17 6 9 1012.5 - 0.0
01/05:00pm 29.8 28.7 14.4 39 9.3 ESE 13 22 7 12 1012.3 - 0.0
01/04:30pm 31.0 28.7 14.2 36 10.2 E 19 24 10 13 1012.0 - 0.0
01/04:00pm 30.9 29.1 14.5 37 10.0 E 17 28 9 15 1011.8 - 0.0
01/03:30pm 31.3 30.0 13.6 34 10.7 NE 13 28 7 15 1011.8 - 0.0
01/03:00pm 32.0 29.1 12.3 30 11.7 ESE 19 26 10 14 1012.0 1011.9 0.0
01/02:30pm 31.7 29.8 13.0 32 11.2 ESE 15 24 8 13 1012.3 - 0.0
01/02:00pm 29.6 30.9 18.4 51 7.2 SSW 9 17 5 9 1012.7 - 0.0
01/01:36pm 28.4 30.0 19.9 60 5.6 SSW 11 30 6 16 1013.1 - 0.0
01/01:35pm 28.0 27.7 19.2 58 5.7 WSW 19 30 10 16 1013.1 - 0.0
01/01:30pm 27.0 26.9 19.6 64 4.8 WSW 19 30 10 16 1013.3 - 0.0
01/01:00pm 27.2 27.5 19.5 62 5.0 WSW 17 26 9 14 1013.7 - 0.0
01/12:58pm 27.4 27.9 20.0 64 4.8 SW 17 26 9 14 1013.7 - 0.0
01/12:57pm 27.3 27.2 19.6 62 5.0 SW 19 26 10 14 1013.8 - 0.0
01/12:30pm 27.1 27.3 19.4 62 5.0 WSW 17 26 9 14 1014.3 - 0.0
01/12:00pm 27.0 27.1 19.1 62 5.1 WSW 17 28 9 15 1014.6 1014.5 0.0
01/11:30am 26.8 27.6 19.9 66 4.5 WSW 15 22 8 12 1014.9 - 0.0
01/11:00am 27.2 29.1 20.5 67 4.4 SW 11 19 6 10 1015.4 - 0.0
01/10:30am 25.9 27.3 19.5 68 4.1 SW 11 19 6 10 1015.8 - 0.0
01/10:00am 25.6 26.8 18.3 64 4.6 S 9 17 5 9 1016.1 - 0.0
01/09:30am 23.6 25.7 19.3 77 2.7 S 7 13 4 7 1016.2 - 0.0
01/09:27am 23.8 26.0 19.7 78 2.6 S 7 13 4 7 1016.2 - 0.0
01/09:00am 21.6 24.3 21.3 98 0.2 S 9 13 5 7 1016.2 1016.1 0.0
01/08:30am 20.6 23.5 20.6 100 0.0 SSE 6 9 3 5 1015.8 - 0.0
01/08:00am 19.9 23.6 19.9 100 0.0 CALM 0 0 0 0 1015.5 - 0.0
01/07:30am 19.4 22.8 19.4 100 0.0 CALM 0 6 0 3 1015.1 - 0.0
01/07:00am 19.3 20.6 19.3 100 0.0 E 11 13 6 7 1015.0 - 0.0
01/06:30am 19.4 22.8 19.4 100 0.0 CALM 0 0 0 0 1014.5 - 0.0
01/06:00am 19.6 22.7 19.6 100 0.0 SE 2 7 1 4 1014.3 1014.2 0.0
01/05:30am 19.9 22.4 19.9 100 0.0 S 6 7 3 4 1013.9 - 0.0
01/05:00am 19.9 23.5 19.7 99 0.1 CALM 0 6 0 3 1013.8 - 0.0
01/04:30am 20.0 23.7 20.0 100 0.0 CALM 0 0 0 0 1013.6 - 0.0
01/04:00am 19.2 22.5 19.0 99 0.1 CALM 0 0 0 0 1013.3 - 0.0
01/03:30am 19.1 22.3 18.9 99 0.1 CALM 0 0 0 0 1013.2 - 0.0
01/03:00am 18.4 21.3 18.2 99 0.1 CALM 0 0 0 0 1013.1 1013.0 0.0
01/02:30am 18.2 21.0 18.0 99 0.1 CALM 0 0 0 0 1013.2 - 0.0
01/02:00am 18.2 20.9 17.7 97 0.3 CALM 0 0 0 0 1013.3 - 0.0
01/01:54am 17.9 20.3 17.1 95 0.5 CALM 0 0 0 0 1013.3 - 0.0
01/01:30am 18.1 20.3 16.4 90 1.0 CALM 0 0 0 0 1013.4 - 0.0
01/01:00am 18.3 19.9 17.0 92 0.8 E 4 7 2 4 1013.5 - 0.0
01/12:30am 18.2 20.5 16.7 91 0.9 CALM 0 0 0 0 1013.7 - 0.0
01/12:00am 18.2 20.4 16.5 90 1.0 CALM 0 0 0 0 1013.6 1013.5 0.0
 
Date/Time
CST
Temp
°C
App
Temp
°C
Dew
Point
Rel
Hum
%
Delta-T
°C
Wind Press
QNH
hPa
Press
MSL
hPa
Rain
since 9 am
mm
Dir
 
Spd
km/h
Gust
km/h
Spd
kts
Gust
kts
31/11:30pm 18.9 21.3 17.0 89 1.1 CALM 0 0 0 0 1013.5 - 0.0
31/11:00pm 19.6 21.2 17.9 90 1.0 E 6 7 3 4 1013.4 - 0.0
31/10:30pm 20.1 22.7 18.4 90 1.1 ENE 2 7 1 4 1013.6 - 0.0
31/10:00pm 20.5 22.9 18.8 90 1.1 ENE 4 7 2 4 1013.7 - 0.0
31/09:30pm 20.9 22.7 18.7 87 1.4 ESE 7 9 4 5 1013.8 - 0.0
31/09:00pm 21.5 22.9 18.7 84 1.8 SE 9 13 5 7 1013.6 1013.5 0.0
31/08:30pm 22.3 23.0 18.9 81 2.1 ENE 13 17 7 9 1013.6 - 0.0
31/08:00pm 23.2 24.2 18.7 76 2.8 ESE 11 15 6 8 1013.8 - 0.0
31/07:30pm 23.6 24.9 18.5 73 3.2 ESE 9 13 5 7 1013.4 - 0.0
31/07:00pm 24.5 26.1 18.2 68 4.0 ESE 7 11 4 6 1012.9 - 0.0
31/06:30pm 25.7 26.6 17.6 61 5.1 ESE 9 13 5 7 1012.5 - 0.0
31/06:00pm 27.1 26.5 16.7 53 6.5 E 15 19 8 10 1012.3 1012.2 0.0
31/05:30pm 28.5 27.7 15.1 44 8.2 ESE 13 19 7 10 1012.0 - 0.0
31/05:00pm 28.9 26.1 11.5 34 10.0 E 17 22 9 12 1011.7 - 0.0
31/04:30pm 29.4 27.4 11.5 33 10.3 ESE 13 20 7 11 1011.5 - 0.0
31/04:00pm 29.8 27.7 11.3 32 10.7 ESE 13 22 7 12 1011.4 - 0.0
31/03:30pm 30.0 27.0 10.5 30 11.1 ESE 17 28 9 15 1011.3 - 0.0
31/03:00pm 30.4 28.1 11.9 32 10.8 E 15 26 8 14 1011.4 1011.3 0.0
31/02:30pm 30.8 27.0 9.1 26 12.1 ENE 19 26 10 14 1011.6 - 0.0
31/02:00pm 30.8 27.4 9.1 26 12.1 E 17 32 9 17 1011.9 - 0.0
31/01:30pm 31.7 28.7 9.3 25 12.6 E 15 30 8 16 1012.2 - 0.0
31/01:00pm 30.9 27.1 7.4 23 12.8 E 17 28 9 15 1012.7 - 0.0
31/12:30pm 28.1 26.2 19.3 58 5.7 W 28 41 15 22 1012.9 - 0.0
31/12:00pm 29.5 29.4 17.0 47 7.9 SSE 13 22 7 12 1013.4 1013.3 0.0
31/11:30am 28.6 27.7 17.8 52 6.9 S 19 26 10 14 1014.0 - 0.0
31/11:00am 27.6 28.8 19.1 59 5.5 SW 11 20 6 11 1014.3 - 0.0
31/10:30am 28.0 29.0 18.7 57 6.0 SW 11 17 6 9 1014.5 - 0.0
31/10:00am 27.3 28.3 19.4 62 5.1 SW 13 19 7 10 1014.8 - 0.0
31/09:30am 28.1 28.5 14.7 44 8.1 SE 6 11 3 6 1015.0 - 0.0
31/09:00am 25.3 28.7 20.1 73 3.4 N 2 7 1 4 1014.9 1014.8 0.0
31/08:30am 21.6 24.9 19.0 85 1.6 CALM 0 0 0 0 1015.0 - 0.0
31/08:09am 19.9 23.3 19.4 97 0.3 CALM 0 0 0 0 1015.0 - 0.0
31/08:00am 19.0 21.4 18.8 99 0.1 NE 4 7 2 4 1015.0 - 0.0
31/07:30am 17.4 19.6 17.4 100 0.0 S 2 7 1 4 1014.9 - 0.0
31/07:05am 16.4 18.1 16.2 99 0.1 NNE 2 7 1 4 1014.7 - 0.0
31/07:00am 16.6 17.6 16.4 99 0.1 NE 6 9 3 5 1014.7 - 0.0
31/06:30am 15.9 17.6 15.3 96 0.3 CALM 0 2 0 1 1014.5 - 0.0
31/06:22am 16.1 17.2 15.5 96 0.3 E 4 7 2 4 1014.3 - 0.0
31/06:00am 16.0 17.8 15.4 96 0.3 CALM 0 7 0 4 1014.1 1014.0 0.0
31/05:40am 16.4 18.3 15.8 96 0.4 CALM 0 0 0 0 1013.7 - 0.0
31/05:30am 16.2 18.0 15.6 96 0.4 CALM 0 0 0 0 1013.8 - 0.0
31/05:13am 16.6 18.6 16.1 97 0.3 CALM 0 6 0 3 1013.8 - 0.0
31/05:00am 16.9 18.0 16.6 98 0.2 ESE 6 9 3 5 1013.7 - 0.0
31/04:51am 16.3 17.0 15.7 96 0.4 S 6 7 3 4 1013.8 - 0.0
31/04:30am 16.5 18.5 15.9 96 0.4 CALM 0 7 0 4 1013.5 - 0.0
31/04:00am 16.9 17.9 16.3 96 0.4 SE 6 7 3 4 1013.5 - 0.0
31/03:30am 17.9 19.3 17.4 97 0.3 SSW 6 9 3 5 1013.5 - 0.0
31/03:00am 18.2 19.6 17.7 97 0.3 SSW 7 11 4 6 1013.6 1013.5 0.0
31/02:30am 17.7 18.5 16.4 92 0.8 SSE 7 11 4 6 1013.6 - 0.0
31/02:00am 18.6 19.5 17.6 94 0.6 E 9 11 5 6 1013.5 - 0.0
31/01:30am 18.8 19.7 17.6 93 0.7 E 9 11 5 6 1013.5 - 0.0
31/01:00am 19.0 19.6 17.7 92 0.8 E 11 13 6 7 1013.5 - 0.0
31/12:30am 19.1 19.9 17.2 89 1.2 E 9 13 5 7 1013.7 - 0.0
31/12:00am 19.3 20.1 17.4 89 1.2 E 9 13 5 7 1013.9 1013.8 0.0
 
Date/Time
CST
Temp
°C
App
Temp
°C
Dew
Point
Rel
Hum
%
Delta-T
°C
Wind Press
QNH
hPa
Press
MSL
hPa
Rain
since 9 am
mm
Dir
 
Spd
km/h
Gust
km/h
Spd
kts
Gust
kts
30/11:30pm 19.1 19.5 17.2 89 1.2 E 11 13 6 7 1013.8 - 0.0
30/11:00pm 18.8 19.5 16.2 85 1.6 E 7 9 4 5 1014.0 - 0.0
30/10:30pm 18.7 18.9 15.8 83 1.7 E 9 11 5 6 1014.1 - 0.0
30/10:00pm 18.8 19.3 15.5 81 1.9 ENE 7 9 4 5 1014.2 - 0.0
30/09:30pm 18.6 18.5 14.9 79 2.2 E 9 11 5 6 1014.4 - 0.0
30/09:14pm 19.2 19.4 14.7 75 2.6 E 7 9 4 5 1014.3 - 0.0
30/09:02pm 19.5 19.9 15.2 76 2.5 E 7 9 4 5 1014.2 - 0.0
30/09:00pm 19.6 20.2 15.3 76 2.5 E 6 7 3 4 1014.2 1014.1 0.0
30/08:30pm 19.7 21.1 14.3 71 3.1 CALM 0 0 0 0 1014.3 - 0.0
30/08:00pm 21.1 21.3 14.3 65 4.0 E 6 7 3 4 1014.1 - 0.0
30/07:30pm 22.6 22.9 15.0 62 4.5 ESE 7 9 4 5 1013.9 - 0.0
30/07:00pm 23.8 23.9 14.5 56 5.5 ESE 7 9 4 5 1013.6 - 0.0
30/06:30pm 25.1 24.5 13.6 49 6.7 ESE 9 15 5 8 1013.3 - 0.0
30/06:00pm 27.1 25.6 12.0 39 8.7 ESE 11 17 6 9 1013.0 1012.9 0.0
30/05:30pm 28.0 25.6 10.2 33 10.0 ESE 13 20 7 11 1012.8 - 0.0
30/05:00pm 29.0 25.6 9.2 29 11.0 E 17 26 9 14 1012.7 - 0.0
30/04:30pm 29.5 25.4 8.0 26 11.7 E 19 30 10 16 1012.6 - 0.0

Other Formats:

Comma delimited format used in spreadsheet applications
http://www.bom.gov.au/fwo/IDD60801/IDD60801.94153.axf

JavaScript Object Notation format (JSON) in row-major order
http://www.bom.gov.au/fwo/IDD60801/IDD60801.94153.json